BIT weather

Baitadi Airport
Baitadi, Mahakali, Nepal

Public forecast

Using degrees Celsius for public forecast. Weather courtesy of forecast.io.

METAR (pilot weather report)

Report is more than 6 hours old.

Closest report is Pantnagar Airport, 62.0 nm (114.9 km) WSW. Retrieved 2019/09/22 08:30 UTC (17 hours ago):

VIPT 220830Z 32003KT 6000 FEW020 OVC090 29/24 Q1011

TAF (pilot weather forecast)

Forecast is more than 12 hours old.

Closest forecast is Pantnagar Airport, 62.0 nm (114.9 km) WSW. Retrieved 2016/07/10 06:00 UTC (3 years ago):

TAF VIPT 100500Z 1006/1015 24005KT 4000 HZ FEW040 SCT100 TEMPO 1010/1015 2000 -TSRA SCT030 FEW035CB BKN090